Time;durP1;ratioP1;P1;durP2;ratioP2;P2;SDS_P1;SDS_P2;PMS_P1;PMS_P2;Temp;Humidity;BMP_temperature;BMP_pressure;BME280_temperature;BME280_humidity;BME280_pressure;Samples;Min_cycle;Max_cycle;Signal;HPM_P1;HPM_P2
2023/08/24 00:01:26;;;;;;;16.55;14.77;;;;;;;;;;5075314;28;20028;-71
2023/08/24 00:03:52;;;;;;;17.02;14.98;;;;;;;;;;5075753;28;20024;-71
2023/08/24 00:06:18;;;;;;;25.27;18.77;;;;;;;;;;5075399;28;20016;-71
2023/08/24 00:08:45;;;;;;;18.83;16.00;;;;;;;;;;5075664;28;20458;-71
2023/08/24 00:11:14;;;;;;;20.75;16.67;;;;;;;;;;5075382;28;20032;-71
2023/08/24 00:13:51;;;;;;;18.77;15.48;;;;;;;;;;5075323;28;20481;-72
2023/08/24 00:16:19;;;;;;;20.88;17.55;;;;;;;;;;5074102;28;20020;-72
2023/08/24 00:18:45;;;;;;;20.40;17.20;;;;;;;;;;5073894;28;20031;-71
2023/08/24 00:21:11;;;;;;;22.65;16.80;;;;;;;;;;5074578;28;20035;-71
2023/08/24 00:23:38;;;;;;;18.20;15.35;;;;;;;;;;5074277;28;20020;-71
2023/08/24 00:26:04;;;;;;;20.20;17.33;;;;;;;;;;5074910;28;20115;-71
2023/08/24 00:28:30;;;;;;;21.48;17.77;;;;;;;;;;5075010;28;20059;-72
2023/08/24 00:30:56;;;;;;;20.83;16.13;;;;;;;;;;5074862;28;20032;-71
2023/08/24 00:33:22;;;;;;;16.40;14.68;;;;;;;;;;5074717;28;20094;-71
2023/08/24 00:35:48;;;;;;;21.55;15.65;;;;;;;;;;5074779;28;20473;-71
2023/08/24 00:38:14;;;;;;;22.00;17.35;;;;;;;;;;5073943;28;20047;-71
2023/08/24 00:40:43;;;;;;;21.60;16.48;;;;;;;;;;5074804;28;20032;-71
2023/08/24 00:43:09;;;;;;;24.95;18.38;;;;;;;;;;5074315;28;20017;-71
2023/08/24 00:45:36;;;;;;;19.33;17.35;;;;;;;;;;5074748;28;20036;-71
2023/08/24 00:48:02;;;;;;;20.55;18.23;;;;;;;;;;5073884;28;20021;-71
2023/08/24 00:50:28;;;;;;;19.85;17.02;;;16.30;99.90;;;;;;5074487;28;20394;-70
2023/08/24 00:52:54;;;;;;;23.25;18.42;;;16.10;99.90;;;;;;5074769;28;20037;-70
2023/08/24 00:55:20;;;;;;;22.83;19.35;;;16.00;99.90;;;;;;5074471;28;20413;-71
2023/08/24 00:57:47;;;;;;;21.90;18.33;;;16.00;99.90;;;;;;5074051;28;20123;-71
2023/08/24 01:00:13;;;;;;;24.77;20.33;;;16.00;99.90;;;;;;5074027;28;20025;-70
2023/08/24 01:02:39;;;;;;;25.38;20.58;;;16.00;99.90;;;;;;5074350;28;20487;-71
2023/08/24 01:05:06;;;;;;;20.77;17.55;;;15.90;99.90;;;;;;5074256;28;20025;-71
2023/08/24 01:07:34;;;;;;;20.20;18.08;;;15.80;99.90;;;;;;5074298;28;20029;-71
2023/08/24 01:10:00;;;;;;;21.58;18.75;;;15.80;99.90;;;;;;5074821;28;20086;-71
2023/08/24 01:12:51;;;;;;;21.88;18.65;;;15.80;99.90;;;;;;5074712;28;20402;-70
2023/08/24 01:18:11;;;;;;;28.73;22.83;;;15.80;99.90;;;;;;5111975;27;20105;-71
2023/08/24 01:20:37;;;;;;;23.45;20.02;;;15.80;99.90;;;;;;5111786;28;20477;-71
2023/08/24 01:26:17;;;;;;;19.77;17.58;;;15.80;99.90;;;;;;5132275;27;20375;-71
2023/08/24 01:28:44;;;;;;;25.95;22.13;;;;;;;;;;5132432;28;20059;-72
2023/08/24 01:31:10;;;;;;;23.45;20.85;;;;;;;;;;5132524;28;20034;-72
2023/08/24 01:33:36;;;;;;;24.90;21.67;;;;;;;;;;5132234;28;20465;-71
2023/08/24 01:36:03;;;;;;;24.77;21.35;;;;;;;;;;5132208;27;20027;-71
2023/08/24 01:38:30;;;;;;;29.38;24.73;;;;;;;;;;5132193;28;20501;-71
2023/08/24 01:41:09;;;;;;;27.95;22.98;;;;;;;;;;5132102;28;20035;-71
2023/08/24 01:43:37;;;;;;;24.90;21.17;;;;;;;;;;5131952;28;20023;-71
2023/08/24 01:46:04;;;;;;;24.63;21.98;;;;;;;;;;5131894;27;20042;-71
2023/08/24 01:48:31;;;;;;;23.88;21.33;;;;;;;;;;5131889;27;20019;-71
2023/08/24 01:50:58;;;;;;;26.90;22.40;;;;;;;;;;5131955;27;20026;-71
2023/08/24 01:53:26;;;;;;;30.23;26.42;;;;;;;;;;5131737;27;20471;-71
2023/08/24 01:55:53;;;;;;;33.20;28.58;;;;;;;;;;5131822;28;20035;-71
2023/08/24 01:58:19;;;;;;;31.45;27.38;;;;;;;;;;5131770;28;20424;-76
2023/08/24 02:00:45;;;;;;;36.08;30.25;;;;;;;;;;5131627;27;20035;-71
2023/08/24 02:03:11;;;;;;;31.35;28.02;;;;;;;;;;5131691;27;20034;-71
2023/08/24 02:05:37;;;;;;;36.13;31.00;;;;;;;;;;5131358;28;20051;-71
2023/08/24 02:08:03;;;;;;;37.55;31.92;;;;;;;;;;5131515;28;20031;-70
2023/08/24 02:10:29;;;;;;;36.10;31.52;;;14.70;99.90;;;;;;5131478;27;20019;-70
2023/08/24 02:12:55;;;;;;;35.45;31.60;;;15.50;99.90;;;;;;5131737;28;20034;-71
2023/08/24 02:15:21;;;;;;;29.92;26.65;;;;;;;;;;5131291;28;20020;-71
2023/08/24 02:17:47;;;;;;;43.90;36.40;;;;;;;;;;5130819;27;20039;-71
2023/08/24 02:20:13;;;;;;;45.13;35.95;;;;;;;;;;5131408;28;20037;-71
2023/08/24 02:22:39;;;;;;;45.30;37.22;;;;;;;;;;5131017;28;20042;-70
2023/08/24 02:25:05;;;;;;;45.25;37.42;;;;;;;;;;5130492;27;20048;-71
2023/08/24 02:27:32;;;;;;;48.15;37.47;;;15.40;99.90;;;;;;5131178;28;20026;-70
2023/08/24 02:29:58;;;;;;;55.80;46.65;;;15.30;99.90;;;;;;5130806;28;20024;-70
2023/08/24 02:32:23;;;;;;;51.65;44.20;;;15.30;99.90;;;;;;5131452;28;20034;-71
2023/08/24 02:34:49;;;;;;;56.50;46.70;;;15.30;99.90;;;;;;5130521;28;20070;-70
2023/08/24 02:37:14;;;;;;;51.50;41.83;;;15.30;99.90;;;;;;5117657;28;20084;-70
2023/08/24 02:39:40;;;;;;;51.55;39.05;;;15.30;99.90;;;;;;5117278;28;20111;-71
2023/08/24 02:42:06;;;;;;;51.75;40.33;;;15.30;99.90;;;;;;5117433;28;20106;-71
2023/08/24 02:44:32;;;;;;;41.38;35.03;;;15.30;99.90;;;;;;5117354;28;20369;-70
2023/08/24 02:46:57;;;;;;;46.58;36.45;;;15.30;99.90;;;;;;5117051;28;20015;-70
2023/08/24 02:49:23;;;;;;;52.28;41.42;;;15.30;99.90;;;;;;5116515;28;20110;-71
2023/08/24 02:51:49;;;;;;;52.15;43.65;;;15.30;99.90;;;;;;5117306;28;20075;-70
2023/08/24 02:54:14;;;;;;;57.03;44.90;;;15.20;99.90;;;;;;5117228;28;20032;-71
2023/08/24 02:56:40;;;;;;;51.95;44.28;;;15.20;99.90;;;;;;5116443;28;20031;-71
2023/08/24 02:59:06;;;;;;;51.15;43.60;;;15.20;99.90;;;;;;5117130;28;20030;-71
2023/08/24 03:01:32;;;;;;;60.05;48.90;;;15.20;99.90;;;;;;5117201;28;20032;-71
2023/08/24 03:03:57;;;;;;;55.70;43.92;;;15.20;99.90;;;;;;5116417;28;20045;-70
2023/08/24 03:06:24;;;;;;;50.58;41.65;;;15.20;99.90;;;;;;5116687;28;20092;-70
2023/08/24 03:08:50;;;;;;;45.42;36.40;;;15.20;99.90;;;;;;5116974;28;20020;-71
2023/08/24 03:11:15;;;;;;;42.08;34.35;;;15.30;99.90;;;;;;5116704;28;20039;-71
2023/08/24 03:13:41;;;;;;;38.53;33.55;;;15.20;99.90;;;;;;5116305;28;20073;-70
2023/08/24 03:16:08;;;;;;;57.08;43.58;;;15.20;99.90;;;;;;5116285;28;20110;-70
2023/08/24 03:18:34;;;;;;;45.15;38.47;;;15.20;99.90;;;;;;5116626;28;20028;-70
2023/08/24 03:21:00;;;;;;;51.20;42.15;;;15.10;99.90;;;;;;5116705;28;20513;-70
2023/08/24 03:23:26;;;;;;;48.42;40.50;;;15.10;99.90;;;;;;5116381;28;20106;-70
2023/08/24 03:25:52;;;;;;;52.08;42.00;;;15.10;99.90;;;;;;5115376;28;20039;-70
2023/08/24 03:28:18;;;;;;;49.63;41.08;;;15.10;99.90;;;;;;5116005;28;20031;-72
2023/08/24 03:30:48;;;;;;;47.10;37.72;;;15.10;99.90;;;;;;5116531;28;20016;-70
2023/08/24 03:33:13;;;;;;;50.28;40.05;;;15.10;99.90;;;;;;5116283;28;20482;-70
2023/08/24 03:35:40;;;;;;;43.28;36.60;;;15.20;99.90;;;;;;5116578;28;20031;-70
2023/08/24 03:38:05;;;;;;;49.75;41.15;;;15.20;99.90;;;;;;5116218;28;20035;-70
2023/08/24 03:40:31;;;;;;;52.70;41.53;;;15.30;99.90;;;;;;5116331;28;20024;-70
2023/08/24 03:42:57;;;;;;;44.13;37.30;;;15.30;99.90;;;;;;5115994;28;20028;-71
2023/08/24 03:45:23;;;;;;;40.33;34.88;;;15.40;99.90;;;;;;5115130;28;20034;-71
2023/08/24 03:47:49;;;;;;;43.92;36.55;;;15.40;99.90;;;;;;5114934;28;20038;-71
2023/08/24 03:50:15;;;;;;;48.30;39.75;;;15.40;99.90;;;;;;5116262;28;20165;-70
2023/08/24 03:52:41;;;;;;;49.35;41.45;;;15.40;99.90;;;;;;5115804;28;20120;-70
2023/08/24 03:55:07;;;;;;;48.15;40.65;;;15.40;99.90;;;;;;5116134;28;20023;-70
2023/08/24 03:57:33;;;;;;;41.60;34.10;;;15.50;99.90;;;;;;5115755;28;20054;-70
2023/08/24 03:59:59;;;;;;;41.15;34.22;;;15.40;99.90;;;;;;5115934;28;20434;-70
2023/08/24 04:02:27;;;;;;;43.08;37.65;;;;;;;;;;5115546;28;20080;-70
2023/08/24 04:04:53;;;;;;;46.80;39.33;;;;;;;;;;5115455;28;20015;-71
2023/08/24 04:07:20;;;;;;;36.92;31.65;;;;;;;;;;5115533;28;20023;-71
2023/08/24 04:09:46;;;;;;;40.00;35.00;;;;;;;;;;5115462;28;20460;-71
2023/08/24 04:12:12;;;;;;;47.50;39.63;;;;;;;;;;5115553;28;20022;-71
2023/08/24 04:14:38;;;;;;;40.58;34.20;;;;;;;;;;5115051;28;20058;-71
2023/08/24 04:17:04;;;;;;;38.83;31.95;;;;;;;;;;5115664;28;20395;-76
2023/08/24 04:19:30;;;;;;;46.40;38.30;;;;;;;;;;5115362;28;20111;-71
2023/08/24 04:21:56;;;;;;;48.63;42.53;;;;;;;;;;5115610;28;20035;-70
2023/08/24 04:24:22;;;;;;;47.88;41.28;;;;;;;;;;5114796;28;20043;-71
2023/08/24 04:26:48;;;;;;;58.65;47.13;;;;;;;;;;5115239;28;20042;-71
2023/08/24 04:29:14;;;;;;;59.28;47.30;;;;;;;;;;5115051;28;20028;-71
2023/08/24 04:31:42;;;;;;;54.05;44.72;;;;;;;;;;5114133;28;20016;-71
2023/08/24 04:34:09;;;;;;;48.30;42.53;;;;;;;;;;5114809;28;20015;-71
2023/08/24 04:36:35;;;;;;;58.42;46.63;;;;;;;;;;5114919;28;20027;-71
2023/08/24 04:39:01;;;;;;;56.28;47.00;;;;;;;;;;5114924;28;20107;-71
2023/08/24 04:41:27;;;;;;;47.50;42.10;;;;;;;;;;5114945;28;20027;-71
2023/08/24 04:43:54;;;;;;;51.78;40.88;;;;;;;;;;5115137;28;20031;-71
2023/08/24 04:46:20;;;;;;;51.40;40.35;;;;;;;;;;5114840;28;20016;-71
2023/08/24 04:48:46;;;;;;;51.33;43.08;;;;;;;;;;5114716;28;20354;-71
2023/08/24 04:51:12;;;;;;;52.25;43.47;;;;;;;;;;5114816;28;20031;-71
2023/08/24 04:53:38;;;;;;;52.53;42.45;;;;;;;;;;5114786;28;20023;-71
2023/08/24 04:56:04;;;;;;;57.13;42.40;;;;;;;;;;5114707;28;20028;-71
2023/08/24 04:58:30;;;;;;;60.60;49.28;;;;;;;;;;5114737;28;20020;-71
2023/08/24 05:00:56;;;;;;;63.42;51.72;;;;;;;;;;5114219;28;20024;-71
2023/08/24 05:03:22;;;;;;;51.15;43.13;;;;;;;;;;5114182;28;20114;-72
2023/08/24 05:05:48;;;;;;;56.50;45.40;;;;;;;;;;5114546;27;20110;-71
2023/08/24 05:08:14;;;;;;;58.83;47.78;;;;;;;;;;5114400;28;20023;-71
2023/08/24 05:10:41;;;;;;;54.88;45.55;;;;;;;;;;5114429;28;20519;-71
2023/08/24 05:13:07;;;;;;;56.65;48.08;;;;;;;;;;5114483;28;20044;-71
2023/08/24 05:15:32;;;;;;;59.20;46.85;;;;;;;;;;5113979;28;20473;-71
2023/08/24 05:17:59;;;;;;;54.28;44.38;;;;;;;;;;5114428;28;20458;-71
2023/08/24 05:20:26;;;;;;;61.08;50.92;;;;;;;;;;5114260;28;20019;-71
2023/08/24 05:22:54;;;;;;;68.63;55.13;;;;;;;;;;5114366;28;20051;-71
2023/08/24 05:25:21;;;;;;;71.90;59.88;;;;;;;;;;5114146;28;20389;-70
2023/08/24 05:27:47;;;;;;;74.45;60.13;;;;;;;;;;5114353;28;20465;-70
2023/08/24 05:30:13;;;;;;;77.70;63.65;;;;;;;;;;5114366;28;20076;-71
2023/08/24 05:32:39;;;;;;;71.60;60.90;;;;;;;;;;5114280;28;20028;-70
2023/08/24 05:35:06;;;;;;;74.03;59.63;;;;;;;;;;5114242;28;20474;-70
2023/08/24 05:37:32;;;;;;;69.82;57.22;;;;;;;;;;5114151;28;20385;-70
2023/08/24 05:39:59;;;;;;;68.00;56.35;;;;;;;;;;5114116;28;20019;-70
2023/08/24 05:42:25;;;;;;;71.97;58.22;;;;;;;;;;5113878;28;20024;-70
2023/08/24 05:44:51;;;;;;;63.97;54.40;;;;;;;;;;5113348;28;20054;-70
2023/08/24 05:47:17;;;;;;;65.18;53.83;;;;;;;;;;5114095;28;20031;-70
2023/08/24 05:49:43;;;;;;;64.43;52.10;;;;;;;;;;5113691;28;20508;-70
2023/08/24 05:52:09;;;;;;;59.40;50.72;;;;;;;;;;5114070;28;20138;-71
2023/08/24 05:54:37;;;;;;;56.35;49.67;;;16.70;99.90;;;;;;5114014;28;20381;-70
2023/08/24 05:57:03;;;;;;;58.35;47.45;;;16.60;99.90;;;;;;5114143;28;20062;-70
2023/08/24 05:59:29;;;;;;;56.08;48.33;;;16.50;99.90;;;;;;5113932;28;20389;-71
2023/08/24 06:01:55;;;;;;;55.90;46.65;;;16.60;99.90;;;;;;5113589;28;20154;-70
2023/08/24 06:04:21;;;;;;;52.55;45.78;;;16.70;99.90;;;;;;5112653;28;20040;-71
2023/08/24 06:06:46;;;;;;;52.65;43.28;;;16.70;99.90;;;;;;5107477;28;20504;-71
2023/08/24 06:09:12;;;;;;;50.22;42.95;;;16.80;99.90;;;;;;5109447;28;20024;-71
2023/08/24 06:11:38;;;;;;;51.45;43.63;;;16.80;99.90;;;;;;5113263;28;20196;-70
2023/08/24 06:14:03;;;;;;;48.42;41.33;;;16.90;99.90;;;;;;5115402;28;20028;-71
2023/08/24 06:16:29;;;;;;;48.30;38.80;;;17.00;99.90;;;;;;5115643;28;20044;-70
2023/08/24 06:18:55;;;;;;;42.30;37.35;;;17.00;99.90;;;;;;5115362;28;20437;-70
2023/08/24 06:21:21;;;;;;;42.60;35.92;;;17.00;99.90;;;;;;5116700;28;20161;-70
2023/08/24 06:23:47;;;;;;;36.95;32.95;;;17.00;99.90;;;;;;5116981;28;20027;-70
2023/08/24 06:26:13;;;;;;;41.83;32.97;;;17.10;99.90;;;;;;5116128;28;20431;-70
2023/08/24 06:28:39;;;;;;;37.55;32.63;;;17.20;99.90;;;;;;5107649;27;20031;-70
2023/08/24 06:31:07;;;;;;;38.42;33.03;;;17.20;99.90;;;;;;5110595;27;20073;-70
2023/08/24 06:33:35;;;;;;;34.88;31.27;;;17.30;99.90;;;;;;5115819;28;20504;-70
2023/08/24 06:36:02;;;;;;;40.33;31.73;;;17.30;99.90;;;;;;5117752;27;20030;-70
2023/08/24 06:38:28;;;;;;;35.95;30.27;;;17.30;99.90;;;;;;5116035;28;20020;-76
2023/08/24 06:40:54;;;;;;;37.25;33.25;;;17.50;99.90;;;;;;5114626;27;20031;-71
2023/08/24 06:43:20;;;;;;;36.67;32.75;;;17.60;99.90;;;;;;5114695;28;20039;-70
2023/08/24 06:45:46;;;;;;;29.75;25.33;;;18.40;99.90;;;;;;5115442;28;20084;-71
2023/08/24 06:48:12;;;;;;;24.90;21.08;;;20.00;99.90;;;;;;5116595;28;20019;-71
2023/08/24 06:50:37;;;;;;;17.02;14.93;;;22.00;99.90;;;;;;5114859;27;20056;-72
2023/08/24 06:53:04;;;;;;;17.27;15.10;;;23.70;1.00;;;;;;5116700;28;20024;-71
2023/08/24 06:55:30;;;;;;;16.30;14.35;;;24.60;99.90;;;;;;5116001;28;20028;-71
2023/08/24 06:57:56;;;;;;;17.73;13.45;;;24.90;99.90;;;;;;5116278;28;20507;-72
2023/08/24 07:00:22;;;;;;;14.27;12.80;;;25.90;36.20;;;;;;5115495;28;20039;-72
2023/08/24 07:02:49;;;;;;;16.15;13.05;;;27.10;99.90;;;;;;5115305;28;20031;-72
2023/08/24 07:05:18;;;;;;;14.63;11.13;;;27.10;14.60;;;;;;5112630;27;20384;-72
2023/08/24 07:07:44;;;;;;;16.35;12.10;;;27.60;99.90;;;;;;5117032;27;20028;-69
2023/08/24 07:10:10;;;;;;;15.43;11.75;;;;;;;;;;5117274;27;20051;-70
2023/08/24 07:12:36;;;;;;;11.70;10.60;;;28.30;99.90;;;;;;5115871;28;20032;-69
2023/08/24 07:15:02;;;;;;;15.52;9.75;;;28.50;1.00;;;;;;5114968;28;20568;-69
2023/08/24 07:17:28;;;;;;;10.45;8.88;;;28.70;1.00;;;;;;5115948;28;20494;-69
2023/08/24 07:19:53;;;;;;;11.57;9.50;;;28.30;1.00;;;;;;5113555;28;20037;-70
2023/08/24 07:22:19;;;;;;;10.90;9.00;;;28.40;99.90;;;;;;5114298;28;20027;-70
2023/08/24 07:24:45;;;;;;;10.13;8.57;;;27.90;49.80;;;;;;5114627;28;20366;-70
2023/08/24 07:27:11;;;;;;;12.43;9.00;;;;;;;;;;5116270;28;20028;-70
2023/08/24 07:29:37;;;;;;;14.23;8.30;;;;;;;;;;5110934;28;20015;-69
2023/08/24 07:32:04;;;;;;;10.40;8.23;;;;;;;;;;5111592;27;20040;-70
2023/08/24 07:34:30;;;;;;;10.55;7.85;;;;;;;;;;5110986;28;20028;-70
2023/08/24 07:36:56;;;;;;;9.65;8.13;;;;;;;;;;5113546;27;20038;-70
2023/08/24 07:39:22;;;;;;;12.82;7.38;;;;;;;;;;5110741;27;20024;-70
2023/08/24 07:41:48;;;;;;;12.65;8.70;;;;;;;;;;5109832;27;20039;-70
2023/08/24 07:44:14;;;;;;;12.57;7.93;;;;;;;;;;5114082;27;20499;-70
2023/08/24 07:46:40;;;;;;;9.23;8.02;;;;;;;;;;5111773;27;20024;-71
2023/08/24 07:49:06;;;;;;;12.73;7.80;;;;;;;;;;5116194;27;20038;-71
2023/08/24 07:51:33;;;;;;;10.27;7.40;;;31.50;1.00;;;;;;5115011;27;20035;-72
2023/08/24 07:53:59;;;;;;;11.77;8.52;;;30.90;1.00;;;;;;5113976;28;20032;-72
2023/08/24 07:56:25;;;;;;;15.80;8.90;;;30.30;99.90;;;;;;5112490;27;20020;-71
2023/08/24 07:58:51;;;;;;;13.70;7.80;;;30.20;99.90;;;;;;5112985;28;20028;-70
2023/08/24 08:01:16;;;;;;;9.40;8.15;;;30.10;99.90;;;;;;5109979;27;20431;-71
2023/08/24 08:03:42;;;;;;;11.52;7.95;;;31.00;99.90;;;;;;5105843;27;20073;-70
2023/08/24 08:06:08;;;;;;;11.10;7.72;;;32.00;1.00;;;;;;5100826;27;20086;-70
2023/08/24 08:08:33;;;;;;;11.68;7.03;;;31.80;24.50;;;;;;5109169;28;20031;-71
2023/08/24 08:11:00;;;;;;;9.27;7.03;;;31.90;1.00;;;;;;5114721;28;20031;-71
2023/08/24 08:13:28;;;;;;;12.40;6.97;;;31.60;1.00;;;;;;5114026;28;20077;-71
2023/08/24 08:15:54;;;;;;;12.60;6.82;;;31.00;99.90;;;;;;5112166;27;20080;-71
2023/08/24 08:18:19;;;;;;;8.82;7.38;;;32.00;14.40;;;;;;5111420;27;20476;-71
2023/08/24 08:20:45;;;;;;;10.93;7.65;;;31.60;1.00;;;;;;5110494;28;20027;-71
2023/08/24 08:23:11;;;;;;;10.32;7.07;;;31.60;1.00;;;;;;5113837;28;20036;-71
2023/08/24 08:25:36;;;;;;;14.43;7.68;;;31.50;1.00;;;;;;5114589;27;20055;-71
2023/08/24 08:28:02;;;;;;;12.63;7.82;;;32.20;1.00;;;;;;5119002;27;20095;-71
2023/08/24 08:30:28;;;;;;;8.85;7.32;;;32.60;1.00;;;;;;5122257;27;20481;-71
2023/08/24 08:32:54;;;;;;;9.45;7.63;;;31.90;1.00;;;;;;5113118;28;20456;-70
2023/08/24 08:35:21;;;;;;;11.80;8.32;;;32.20;1.00;;;;;;5110900;28;20070;-71
2023/08/24 08:37:49;;;;;;;12.07;7.72;;;31.90;1.00;;;;;;5113054;28;20480;-70
2023/08/24 08:40:15;;;;;;;9.50;6.00;;;32.90;1.00;;;;;;5101280;27;20024;-73
2023/08/24 08:42:40;;;;;;;7.65;6.88;;;33.00;1.00;;;;;;5120830;27;20046;-73
2023/08/24 08:45:09;;;;;;;10.63;6.90;;;32.80;1.00;;;;;;5112415;28;20081;-73
2023/08/24 08:47:35;;;;;;;10.98;7.45;;;33.10;1.00;;;;;;5105553;27;20024;-74
2023/08/24 08:50:03;;;;;;;11.70;7.63;;;33.50;1.00;;;;;;5108910;28;20416;-74
2023/08/24 08:52:29;;;;;;;8.75;6.60;;;32.00;99.90;;;;;;5113021;28;20645;-74
2023/08/24 08:54:55;;;;;;;9.98;7.30;;;32.00;1.00;;;;;;5111977;28;20118;-75
2023/08/24 08:57:24;;;;;;;9.13;6.95;;;32.90;1.00;;;;;;5112130;28;20047;-75
2023/08/24 08:59:52;;;;;;;9.65;6.25;;;32.90;1.00;;;;;;5112019;28;20045;-75
2023/08/24 09:02:19;;;;;;;6.97;5.43;;;32.40;1.00;;;;;;5114120;28;20393;-75
2023/08/24 09:04:45;;;;;;;10.30;6.35;;;33.30;1.00;;;;;;5114786;28;20023;-74
2023/08/24 09:07:13;;;;;;;11.90;6.45;;;34.20;99.90;;;;;;5102419;28;20481;-74
2023/08/24 09:09:39;;;;;;;8.07;6.20;;;33.60;99.90;;;;;;5114054;28;20088;-74
2023/08/24 09:12:06;;;;;;;7.55;6.10;;;33.20;99.90;;;;;;5113929;28;20027;-74
2023/08/24 09:14:33;;;;;;;9.95;6.22;;;32.40;99.90;;;;;;5113993;27;20504;-75
2023/08/24 09:16:59;;;;;;;8.98;5.63;;;32.40;99.90;;;;;;5111687;28;20070;-75
2023/08/24 09:19:30;;;;;;;8.55;5.93;;;31.80;1.00;;;;;;5111916;28;20446;-74
2023/08/24 09:21:58;;;;;;;10.45;5.47;;;33.60;99.90;;;;;;5106506;28;20077;-74
2023/08/24 09:24:33;;;;;;;8.05;6.22;;;33.90;99.90;;;;;;5113327;28;20036;-74
2023/08/24 09:27:00;;;;;;;12.65;5.85;;;32.90;99.90;;;;;;5120491;28;20023;-74
2023/08/24 09:29:26;;;;;;;6.47;4.80;;;32.90;99.90;;;;;;5116587;28;20594;-75
2023/08/24 09:31:51;;;;;;;8.10;5.10;;;33.50;99.90;;;;;;5112640;28;20114;-75
2023/08/24 09:34:21;;;;;;;8.13;5.00;;;33.00;99.90;;;;;;5114034;28;20032;-74
2023/08/24 09:36:47;;;;;;;8.55;5.38;;;33.00;99.90;;;;;;5115101;28;20380;-75
2023/08/24 09:39:17;;;;;;;9.18;4.65;;;33.60;99.90;;;;;;5116000;28;20038;-74
2023/08/24 09:41:47;;;;;;;7.95;4.97;;;33.50;99.90;;;;;;5118232;28;20107;-75
2023/08/24 09:44:13;;;;;;;7.22;4.55;;;33.20;99.90;;;;;;5117103;28;20078;-74
2023/08/24 09:46:40;;;;;;;6.90;4.30;;;33.00;99.90;;;;;;5119165;28;20008;-74
2023/08/24 09:49:07;;;;;;;6.85;4.57;;;33.40;99.90;;;;;;5124444;28;20469;-75
2023/08/24 09:51:35;;;;;;;5.50;4.57;;;32.80;99.90;;;;;;5118487;28;20507;-74
2023/08/24 09:54:06;;;;;;;7.57;4.22;;;33.60;99.90;;;;;;5116258;27;20026;-75
2023/08/24 09:56:34;;;;;;;7.97;4.55;;;34.00;99.90;;;;;;5117908;28;20378;-73
2023/08/24 09:59:12;;;;;;;5.65;4.18;;;34.00;99.90;;;;;;5118497;28;20028;-74
2023/08/24 10:01:39;;;;;;;9.45;4.55;;;33.80;99.90;;;;;;5124401;27;20035;-73
2023/08/24 10:04:05;;;;;;;8.13;4.50;;;33.30;99.90;;;;;;5123633;28;20128;-75
2023/08/24 10:06:32;;;;;;;5.65;3.55;;;33.00;99.90;;;;;;5122013;28;20031;-75
2023/08/24 10:09:04;;;;;;;6.13;4.20;;;32.70;99.90;;;;;;5114654;28;20088;-74
2023/08/24 10:11:34;;;;;;;4.32;3.92;;;32.40;1.00;;;;;;5119489;28;20154;-74
2023/08/24 10:14:07;;;;;;;8.60;4.07;;;33.00;1.00;;;;;;5116589;28;20495;-74
2023/08/24 10:16:35;;;;;;;7.95;3.97;;;32.70;99.90;;;;;;5120580;28;20026;-74
2023/08/24 10:19:02;;;;;;;9.25;4.55;;;32.70;99.90;;;;;;5119689;28;20024;-74
2023/08/24 10:21:29;;;;;;;8.85;3.72;;;33.00;99.90;;;;;;5121910;28;20487;-74
2023/08/24 10:23:57;;;;;;;4.93;3.40;;;32.90;99.90;;;;;;5119771;28;20031;-74
2023/08/24 10:26:24;;;;;;;5.05;3.72;;;32.60;99.90;;;;;;5117067;27;20690;-74
2023/08/24 10:28:51;;;;;;;4.35;3.42;;;32.30;99.90;;;;;;5118105;27;20408;-73
2023/08/24 10:31:17;;;;;;;7.13;3.13;;;32.00;1.00;;;;;;5117174;27;20027;-74
2023/08/24 10:33:45;;;;;;;4.78;3.17;;;32.40;1.00;;;;;;5117380;27;20034;-74
2023/08/24 10:36:14;;;;;;;7.22;3.45;;;32.70;99.90;;;;;;5115965;27;20035;-74
2023/08/24 10:38:42;;;;;;;7.68;3.10;;;33.10;99.90;;;;;;5117066;27;20051;-74
2023/08/24 10:41:08;;;;;;;5.80;4.22;;;32.90;99.90;;;;;;5116083;28;20135;-74
2023/08/24 10:43:36;;;;;;;10.55;3.83;;;33.10;99.90;;;;;;5118313;28;20055;-74
2023/08/24 10:46:03;;;;;;;5.28;3.78;;;33.10;99.90;;;;;;5117098;28;20032;-74
2023/08/24 10:48:51;;;;;;;6.50;3.17;;;32.80;99.90;;;;;;5110421;27;20032;-74
2023/08/24 10:51:19;;;;;;;4.90;3.50;;;32.80;99.90;;;;;;5114547;28;20023;-74
2023/08/24 10:56:40;;;;;;;8.43;3.97;;;32.60;99.90;;;;;;5090855;28;20470;-73
2023/08/24 10:59:15;;;;;;;9.23;4.35;;;32.60;1.00;;;;;;5060052;28;20056;-73
2023/08/24 11:01:54;;;;;;;5.43;3.75;;;32.40;1.00;;;;;;5050378;28;20025;-73
2023/08/24 11:04:20;;;;;;;7.13;3.42;;;32.40;22.80;;;;;;5042146;28;20432;-73
2023/08/24 11:07:03;;;;;;;9.50;3.97;;;32.30;1.00;;;;;;5052191;28;20044;-73
2023/08/24 11:09:47;;;;;;;4.78;3.40;;;32.30;1.00;;;;;;5037293;28;20056;-73
2023/08/24 11:12:12;;;;;;;5.22;3.47;;;31.80;1.00;;;;;;5050749;28;20033;-73
2023/08/24 11:14:58;;;;;;;6.90;3.63;;;31.20;1.00;;;;;;5052689;28;20032;-74
2023/08/24 11:17:24;;;;;;;7.00;4.28;;;30.80;1.00;;;;;;5054575;28;20549;-74
2023/08/24 11:19:53;;;;;;;5.07;3.60;;;30.60;22.90;;;;;;5059953;28;20025;-74
2023/08/24 11:22:18;;;;;;;10.25;3.80;;;30.70;81.50;;;;;;5061183;28;20462;-73
2023/08/24 11:24:45;;;;;;;8.10;4.07;;;30.80;93.10;;;;;;5047993;28;20037;-74
2023/08/24 11:27:11;;;;;;;7.80;3.58;;;31.00;99.90;;;;;;5044703;28;20026;-74
2023/08/24 11:29:36;;;;;;;7.93;4.00;;;30.60;99.90;;;;;;5052345;28;20025;-74
2023/08/24 11:32:02;;;;;;;5.18;3.80;;;30.60;99.90;;;;;;5043296;28;20088;-74
2023/08/24 11:34:29;;;;;;;8.48;4.07;;;31.00;99.90;;;;;;5059987;28;20037;-74
2023/08/24 11:36:54;;;;;;;7.15;3.55;;;30.90;99.90;;;;;;5064521;28;20029;-74
2023/08/24 11:39:23;;;;;;;11.20;3.92;;;31.10;99.90;;;;;;5049546;28;20070;-73
2023/08/24 11:42:01;;;;;;;10.02;3.80;;;31.00;99.90;;;;;;5053929;28;20041;-74
2023/08/24 11:44:27;;;;;;;7.35;4.47;;;31.20;99.90;;;;;;5054222;28;20502;-74
2023/08/24 11:46:55;;;;;;;9.32;4.03;;;30.70;1.00;;;;;;5069230;28;20126;-75
2023/08/24 11:49:21;;;;;;;7.45;4.07;;;30.60;1.00;;;;;;5071702;28;20120;-74
2023/08/24 11:51:49;;;;;;;5.93;3.90;;;;;;;;;;5066482;28;20491;-73
2023/08/24 11:54:20;;;;;;;9.25;3.90;;;30.10;1.00;;;;;;5056810;28;20112;-74
2023/08/24 11:56:46;;;;;;;6.97;4.45;;;30.10;5.90;;;;;;5070843;28;20036;-74
2023/08/24 11:59:13;;;;;;;8.95;4.00;;;30.00;23.30;;;;;;5074515;28;20379;-74
2023/08/24 12:01:40;;;;;;;7.10;4.22;;;29.70;99.90;;;;;;5060751;28;20390;-74
2023/08/24 12:04:06;;;;;;;9.43;4.18;;;29.90;99.90;;;;;;5058872;28;20033;-74
2023/08/24 12:06:32;;;;;;;8.48;4.43;;;30.00;99.90;;;;;;5061088;28;20037;-74
2023/08/24 12:08:57;;;;;;;9.38;4.50;;;29.60;1.00;;;;;;5036605;28;20395;-74
2023/08/24 12:11:25;;;;;;;13.77;4.45;;;29.70;1.00;;;;;;5054017;28;20055;-74
2023/08/24 12:13:52;;;;;;;8.95;4.65;;;29.70;28.30;;;;;;5049469;28;20057;-74
2023/08/24 12:16:20;;;;;;;7.47;4.13;;;29.60;10.10;;;;;;5046058;28;20025;-74
2023/08/24 12:19:06;;;;;;;10.70;4.20;;;29.60;99.90;;;;;;5046642;28;20036;-74
2023/08/24 12:21:32;;;;;;;7.45;4.40;;;29.70;99.90;;;;;;5047636;28;20025;-74
2023/08/24 12:24:00;;;;;;;6.82;4.20;;;29.70;99.90;;;;;;5051874;28;20159;-74
2023/08/24 12:26:27;;;;;;;10.05;4.07;;;29.80;99.90;;;;;;5047442;28;20026;-74
2023/08/24 12:28:56;;;;;;;9.60;5.10;;;29.90;99.90;;;;;;5043328;28;20025;-74
2023/08/24 12:31:27;;;;;;;11.30;4.30;;;29.90;71.70;;;;;;5053862;28;20032;-74
2023/08/24 12:34:03;;;;;;;7.90;4.28;;;29.80;99.90;;;;;;5043185;28;20434;-74
2023/08/24 12:36:29;;;;;;;11.65;4.32;;;29.80;99.90;;;;;;5045095;28;20491;-74
2023/08/24 12:38:55;;;;;;;9.38;4.78;;;29.80;99.90;;;;;;5049864;28;20079;-74
2023/08/24 12:41:21;;;;;;;6.40;4.60;;;29.80;1.00;;;;;;5050447;28;20434;-73
2023/08/24 12:43:47;;;;;;;8.52;4.50;;;29.70;99.90;;;;;;5044313;28;20080;-74
2023/08/24 12:46:13;;;;;;;5.82;4.53;;;29.90;1.00;;;;;;5049111;28;20083;-74
2023/08/24 12:48:38;;;;;;;8.07;4.45;;;29.90;99.90;;;;;;5042589;28;20044;-74
2023/08/24 12:51:04;;;;;;;6.88;4.35;;;29.80;99.90;;;;;;5040588;28;20029;-74
2023/08/24 12:53:30;;;;;;;12.02;5.03;;;29.70;99.90;;;;;;5042072;28;20108;-77
2023/08/24 12:55:55;;;;;;;6.97;4.13;;;29.80;99.90;;;;;;5054780;28;20095;-73
2023/08/24 12:58:21;;;;;;;8.35;4.43;;;29.70;99.90;;;;;;5052676;28;20037;-74
2023/08/24 13:00:48;;;;;;;13.73;5.10;;;29.70;99.90;;;;;;5047204;28;20025;-74
2023/08/24 13:03:13;;;;;;;7.43;4.05;;;29.70;99.90;;;;;;5050157;28;20032;-74
2023/08/24 13:05:39;;;;;;;9.73;5.20;;;29.70;99.90;;;;;;5041316;28;20025;-74
2023/08/24 13:08:05;;;;;;;12.05;4.97;;;29.50;99.90;;;;;;5046995;28;20112;-74
2023/08/24 13:10:31;;;;;;;9.90;5.25;;;29.70;99.90;;;;;;5044851;28;20026;-74
2023/08/24 13:12:56;;;;;;;8.32;4.30;;;29.50;99.90;;;;;;5043019;28;20442;-74
2023/08/24 13:15:22;;;;;;;13.32;4.93;;;29.60;99.90;;;;;;5046391;28;20049;-74